sensor_id;sensor_type;location;lat;lon;timestamp;P1;durP1;ratioP1;P2;durP2;ratioP2
38007;SDS011;75335;50.812;12.376;2024-02-16T00:02:05;6.78;;;2.30;;
38007;SDS011;75335;50.812;12.376;2024-02-16T00:04:36;12.30;;;2.45;;
38007;SDS011;75335;50.812;12.376;2024-02-16T00:07:19;7.80;;;2.78;;
38007;SDS011;75335;50.812;12.376;2024-02-16T00:09:50;7.93;;;2.30;;
38007;SDS011;75335;50.812;12.376;2024-02-16T00:12:27;6.20;;;1.90;;
38007;SDS011;75335;50.812;12.376;2024-02-16T00:14:57;7.00;;;2.10;;
38007;SDS011;75335;50.812;12.376;2024-02-16T00:17:30;8.15;;;2.50;;
38007;SDS011;75335;50.812;12.376;2024-02-16T00:20:16;6.70;;;2.30;;
38007;SDS011;75335;50.812;12.376;2024-02-16T00:22:51;6.63;;;2.35;;
38007;SDS011;75335;50.812;12.376;2024-02-16T00:25:32;9.75;;;2.45;;
38007;SDS011;75335;50.812;12.376;2024-02-16T00:28:06;8.98;;;2.97;;
38007;SDS011;75335;50.812;12.376;2024-02-16T00:30:39;7.25;;;2.47;;
38007;SDS011;75335;50.812;12.376;2024-02-16T00:33:09;9.02;;;3.00;;
38007;SDS011;75335;50.812;12.376;2024-02-16T00:35:39;10.13;;;2.35;;
38007;SDS011;75335;50.812;12.376;2024-02-16T00:38:10;7.80;;;2.40;;
38007;SDS011;75335;50.812;12.376;2024-02-16T00:40:41;7.60;;;2.70;;
38007;SDS011;75335;50.812;12.376;2024-02-16T00:43:11;6.57;;;2.38;;
38007;SDS011;75335;50.812;12.376;2024-02-16T00:48:11;6.70;;;2.33;;
38007;SDS011;75335;50.812;12.376;2024-02-16T00:50:43;7.40;;;3.17;;
38007;SDS011;75335;50.812;12.376;2024-02-16T00:53:14;6.95;;;2.97;;
38007;SDS011;75335;50.812;12.376;2024-02-16T00:55:45;9.60;;;2.78;;
38007;SDS011;75335;50.812;12.376;2024-02-16T00:58:17;8.35;;;2.67;;
38007;SDS011;75335;50.812;12.376;2024-02-16T01:00:49;6.60;;;2.33;;
38007;SDS011;75335;50.812;12.376;2024-02-16T01:03:19;8.50;;;2.57;;
38007;SDS011;75335;50.812;12.376;2024-02-16T01:05:49;6.70;;;2.33;;
38007;SDS011;75335;50.812;12.376;2024-02-16T01:08:23;5.22;;;2.35;;
38007;SDS011;75335;50.812;12.376;2024-02-16T01:10:55;13.75;;;2.50;;
38007;SDS011;75335;50.812;12.376;2024-02-16T01:13:28;6.40;;;2.33;;
38007;SDS011;75335;50.812;12.376;2024-02-16T01:15:57;7.25;;;2.55;;
38007;SDS011;75335;50.812;12.376;2024-02-16T01:18:28;5.55;;;2.42;;
38007;SDS011;75335;50.812;12.376;2024-02-16T01:21:14;7.93;;;2.20;;
38007;SDS011;75335;50.812;12.376;2024-02-16T01:23:46;11.80;;;2.75;;
38007;SDS011;75335;50.812;12.376;2024-02-16T01:26:16;6.93;;;3.58;;
38007;SDS011;75335;50.812;12.376;2024-02-16T01:28:52;6.63;;;2.40;;
38007;SDS011;75335;50.812;12.376;2024-02-16T01:31:26;6.72;;;2.50;;
38007;SDS011;75335;50.812;12.376;2024-02-16T01:33:55;6.10;;;2.05;;
38007;SDS011;75335;50.812;12.376;2024-02-16T01:36:25;5.90;;;2.13;;
38007;SDS011;75335;50.812;12.376;2024-02-16T01:39:09;5.18;;;2.20;;
38007;SDS011;75335;50.812;12.376;2024-02-16T01:41:38;6.75;;;2.30;;
38007;SDS011;75335;50.812;12.376;2024-02-16T01:44:11;5.72;;;2.25;;
38007;SDS011;75335;50.812;12.376;2024-02-16T01:46:43;6.50;;;2.53;;
38007;SDS011;75335;50.812;12.376;2024-02-16T01:49:21;6.63;;;2.33;;
38007;SDS011;75335;50.812;12.376;2024-02-16T01:51:57;4.68;;;2.25;;
38007;SDS011;75335;50.812;12.376;2024-02-16T01:54:27;7.28;;;3.00;;
38007;SDS011;75335;50.812;12.376;2024-02-16T01:56:57;10.63;;;2.60;;
38007;SDS011;75335;50.812;12.376;2024-02-16T01:59:30;9.95;;;2.25;;
38007;SDS011;75335;50.812;12.376;2024-02-16T02:02:06;7.28;;;2.72;;
38007;SDS011;75335;50.812;12.376;2024-02-16T02:04:38;13.43;;;2.67;;
38007;SDS011;75335;50.812;12.376;2024-02-16T02:07:12;5.78;;;2.47;;
38007;SDS011;75335;50.812;12.376;2024-02-16T02:10:07;6.53;;;2.40;;
38007;SDS011;75335;50.812;12.376;2024-02-16T02:12:40;8.60;;;2.60;;
38007;SDS011;75335;50.812;12.376;2024-02-16T02:15:26;7.53;;;2.30;;
38007;SDS011;75335;50.812;12.376;2024-02-16T02:18:11;4.47;;;1.88;;
38007;SDS011;75335;50.812;12.376;2024-02-16T02:20:46;7.38;;;2.28;;
38007;SDS011;75335;50.812;12.376;2024-02-16T02:23:22;7.63;;;2.00;;
38007;SDS011;75335;50.812;12.376;2024-02-16T02:25:55;5.55;;;2.50;;
38007;SDS011;75335;50.812;12.376;2024-02-16T02:28:25;6.88;;;2.42;;
38007;SDS011;75335;50.812;12.376;2024-02-16T02:30:55;4.97;;;1.98;;
38007;SDS011;75335;50.812;12.376;2024-02-16T02:33:26;7.60;;;2.92;;
38007;SDS011;75335;50.812;12.376;2024-02-16T02:36:04;7.00;;;2.40;;
38007;SDS011;75335;50.812;12.376;2024-02-16T02:38:38;8.02;;;2.28;;
38007;SDS011;75335;50.812;12.376;2024-02-16T02:41:32;10.18;;;3.40;;
38007;SDS011;75335;50.812;12.376;2024-02-16T02:44:22;8.65;;;2.65;;
38007;SDS011;75335;50.812;12.376;2024-02-16T02:49:45;5.80;;;2.28;;
38007;SDS011;75335;50.812;12.376;2024-02-16T02:52:19;7.70;;;2.33;;
38007;SDS011;75335;50.812;12.376;2024-02-16T02:54:57;8.60;;;3.72;;
38007;SDS011;75335;50.812;12.376;2024-02-16T03:00:34;5.70;;;2.00;;
38007;SDS011;75335;50.812;12.376;2024-02-16T03:03:14;6.47;;;2.42;;
38007;SDS011;75335;50.812;12.376;2024-02-16T03:05:46;5.68;;;2.35;;
38007;SDS011;75335;50.812;12.376;2024-02-16T03:08:19;4.60;;;2.20;;
38007;SDS011;75335;50.812;12.376;2024-02-16T03:11:23;6.63;;;2.47;;
38007;SDS011;75335;50.812;12.376;2024-02-16T03:14:08;6.30;;;2.33;;
38007;SDS011;75335;50.812;12.376;2024-02-16T03:16:43;5.53;;;2.40;;
38007;SDS011;75335;50.812;12.376;2024-02-16T03:19:16;5.95;;;2.53;;
38007;SDS011;75335;50.812;12.376;2024-02-16T03:21:52;6.18;;;2.63;;
38007;SDS011;75335;50.812;12.376;2024-02-16T03:24:37;8.43;;;2.42;;
38007;SDS011;75335;50.812;12.376;2024-02-16T03:27:23;8.77;;;2.47;;
38007;SDS011;75335;50.812;12.376;2024-02-16T03:30:26;7.13;;;2.30;;
38007;SDS011;75335;50.812;12.376;2024-02-16T03:32:55;9.30;;;2.95;;
38007;SDS011;75335;50.812;12.376;2024-02-16T03:35:25;5.13;;;2.05;;
38007;SDS011;75335;50.812;12.376;2024-02-16T03:37:58;8.57;;;2.38;;
38007;SDS011;75335;50.812;12.376;2024-02-16T03:40:28;4.90;;;2.10;;
38007;SDS011;75335;50.812;12.376;2024-02-16T03:43:04;4.80;;;1.95;;
38007;SDS011;75335;50.812;12.376;2024-02-16T03:45:35;7.50;;;2.47;;
38007;SDS011;75335;50.812;12.376;2024-02-16T03:48:05;5.57;;;2.30;;
38007;SDS011;75335;50.812;12.376;2024-02-16T03:50:37;10.63;;;2.20;;
38007;SDS011;75335;50.812;12.376;2024-02-16T03:53:10;9.63;;;2.95;;
38007;SDS011;75335;50.812;12.376;2024-02-16T03:58:16;8.00;;;2.30;;
38007;SDS011;75335;50.812;12.376;2024-02-16T04:00:55;12.02;;;2.35;;
38007;SDS011;75335;50.812;12.376;2024-02-16T04:03:26;5.25;;;2.50;;
38007;SDS011;75335;50.812;12.376;2024-02-16T04:08:28;7.43;;;2.50;;
38007;SDS011;75335;50.812;12.376;2024-02-16T04:11:18;6.53;;;2.20;;
38007;SDS011;75335;50.812;12.376;2024-02-16T04:13:50;5.47;;;2.83;;
38007;SDS011;75335;50.812;12.376;2024-02-16T04:16:20;7.68;;;2.63;;
38007;SDS011;75335;50.812;12.376;2024-02-16T04:18:51;7.22;;;2.70;;
38007;SDS011;75335;50.812;12.376;2024-02-16T04:21:22;8.52;;;2.83;;
38007;SDS011;75335;50.812;12.376;2024-02-16T04:24:02;6.25;;;2.63;;
38007;SDS011;75335;50.812;12.376;2024-02-16T04:26:40;8.32;;;2.63;;
38007;SDS011;75335;50.812;12.376;2024-02-16T04:29:20;7.20;;;2.70;;
38007;SDS011;75335;50.812;12.376;2024-02-16T04:31:48;5.22;;;2.67;;
38007;SDS011;75335;50.812;12.376;2024-02-16T04:34:17;9.43;;;2.65;;
38007;SDS011;75335;50.812;12.376;2024-02-16T04:36:45;9.10;;;2.17;;
38007;SDS011;75335;50.812;12.376;2024-02-16T04:39:13;8.07;;;2.35;;
38007;SDS011;75335;50.812;12.376;2024-02-16T04:41:42;6.65;;;2.45;;
38007;SDS011;75335;50.812;12.376;2024-02-16T04:44:16;6.70;;;2.28;;
38007;SDS011;75335;50.812;12.376;2024-02-16T04:46:46;4.68;;;2.05;;
38007;SDS011;75335;50.812;12.376;2024-02-16T04:49:14;7.72;;;2.75;;
38007;SDS011;75335;50.812;12.376;2024-02-16T04:51:43;5.10;;;2.30;;
38007;SDS011;75335;50.812;12.376;2024-02-16T04:54:12;8.27;;;2.40;;
38007;SDS011;75335;50.812;12.376;2024-02-16T04:56:42;7.53;;;2.60;;
38007;SDS011;75335;50.812;12.376;2024-02-16T04:59:10;5.68;;;2.30;;
38007;SDS011;75335;50.812;12.376;2024-02-16T05:01:39;5.78;;;2.20;;
38007;SDS011;75335;50.812;12.376;2024-02-16T05:04:09;5.47;;;2.40;;
38007;SDS011;75335;50.812;12.376;2024-02-16T05:06:38;6.47;;;2.78;;
38007;SDS011;75335;50.812;12.376;2024-02-16T05:09:06;5.30;;;2.35;;
38007;SDS011;75335;50.812;12.376;2024-02-16T05:11:35;4.50;;;1.85;;
38007;SDS011;75335;50.812;12.376;2024-02-16T05:14:03;5.32;;;2.03;;
38007;SDS011;75335;50.812;12.376;2024-02-16T05:16:31;5.03;;;2.15;;
38007;SDS011;75335;50.812;12.376;2024-02-16T05:18:59;5.50;;;2.20;;
38007;SDS011;75335;50.812;12.376;2024-02-16T05:21:29;6.25;;;2.33;;
38007;SDS011;75335;50.812;12.376;2024-02-16T05:23:57;6.85;;;2.60;;
38007;SDS011;75335;50.812;12.376;2024-02-16T05:26:27;5.35;;;2.05;;
38007;SDS011;75335;50.812;12.376;2024-02-16T05:28:55;5.15;;;2.03;;
38007;SDS011;75335;50.812;12.376;2024-02-16T05:31:22;4.43;;;1.85;;
38007;SDS011;75335;50.812;12.376;2024-02-16T05:33:50;6.32;;;1.90;;
38007;SDS011;75335;50.812;12.376;2024-02-16T05:36:18;6.40;;;2.05;;
38007;SDS011;75335;50.812;12.376;2024-02-16T05:41:45;5.93;;;2.28;;
38007;SDS011;75335;50.812;12.376;2024-02-16T05:44:13;4.88;;;2.10;;
38007;SDS011;75335;50.812;12.376;2024-02-16T05:46:56;8.25;;;2.42;;
38007;SDS011;75335;50.812;12.376;2024-02-16T05:49:26;5.47;;;2.38;;
38007;SDS011;75335;50.812;12.376;2024-02-16T05:51:55;5.63;;;2.08;;
38007;SDS011;75335;50.812;12.376;2024-02-16T05:54:42;4.43;;;2.00;;
38007;SDS011;75335;50.812;12.376;2024-02-16T05:57:15;6.85;;;2.28;;
38007;SDS011;75335;50.812;12.376;2024-02-16T05:59:44;6.38;;;2.42;;
38007;SDS011;75335;50.812;12.376;2024-02-16T06:02:12;5.55;;;2.28;;
38007;SDS011;75335;50.812;12.376;2024-02-16T06:04:40;5.88;;;2.63;;
38007;SDS011;75335;50.812;12.376;2024-02-16T06:09:39;8.32;;;4.50;;
38007;SDS011;75335;50.812;12.376;2024-02-16T06:15:17;6.95;;;3.50;;
38007;SDS011;75335;50.812;12.376;2024-02-16T06:17:45;9.60;;;4.55;;
38007;SDS011;75335;50.812;12.376;2024-02-16T06:20:15;7.40;;;3.37;;
38007;SDS011;75335;50.812;12.376;2024-02-16T06:22:45;14.43;;;4.53;;
38007;SDS011;75335;50.812;12.376;2024-02-16T06:25:30;6.70;;;2.90;;
38007;SDS011;75335;50.812;12.376;2024-02-16T06:27:58;5.20;;;2.83;;
38007;SDS011;75335;50.812;12.376;2024-02-16T06:30:25;7.90;;;3.17;;
38007;SDS011;75335;50.812;12.376;2024-02-16T06:32:55;6.07;;;3.05;;
38007;SDS011;75335;50.812;12.376;2024-02-16T06:35:24;8.35;;;3.35;;
38007;SDS011;75335;50.812;12.376;2024-02-16T06:37:52;6.35;;;2.80;;
38007;SDS011;75335;50.812;12.376;2024-02-16T06:40:20;7.82;;;3.58;;
38007;SDS011;75335;50.812;12.376;2024-02-16T06:42:53;6.00;;;2.95;;
38007;SDS011;75335;50.812;12.376;2024-02-16T06:45:22;7.03;;;2.63;;
38007;SDS011;75335;50.812;12.376;2024-02-16T06:47:51;5.82;;;2.58;;
38007;SDS011;75335;50.812;12.376;2024-02-16T06:50:19;6.65;;;3.03;;
38007;SDS011;75335;50.812;12.376;2024-02-16T06:52:47;6.95;;;2.47;;
38007;SDS011;75335;50.812;12.376;2024-02-16T06:55:15;7.28;;;2.90;;
38007;SDS011;75335;50.812;12.376;2024-02-16T06:57:46;5.07;;;2.37;;
38007;SDS011;75335;50.812;12.376;2024-02-16T07:00:21;7.40;;;2.50;;
38007;SDS011;75335;50.812;12.376;2024-02-16T07:02:50;5.65;;;2.40;;
38007;SDS011;75335;50.812;12.376;2024-02-16T07:05:18;5.35;;;2.33;;
38007;SDS011;75335;50.812;12.376;2024-02-16T07:07:48;7.00;;;2.72;;
38007;SDS011;75335;50.812;12.376;2024-02-16T07:10:18;5.97;;;2.97;;
38007;SDS011;75335;50.812;12.376;2024-02-16T07:12:52;10.38;;;3.00;;
38007;SDS011;75335;50.812;12.376;2024-02-16T07:15:25;6.75;;;3.05;;
38007;SDS011;75335;50.812;12.376;2024-02-16T07:17:56;7.57;;;2.55;;
38007;SDS011;75335;50.812;12.376;2024-02-16T07:20:44;7.15;;;2.53;;
38007;SDS011;75335;50.812;12.376;2024-02-16T07:23:23;5.10;;;2.30;;
38007;SDS011;75335;50.812;12.376;2024-02-16T07:25:56;6.53;;;2.45;;
38007;SDS011;75335;50.812;12.376;2024-02-16T07:28:44;6.25;;;2.13;;
38007;SDS011;75335;50.812;12.376;2024-02-16T07:31:17;5.22;;;2.08;;
38007;SDS011;75335;50.812;12.376;2024-02-16T07:34:06;6.70;;;2.13;;
38007;SDS011;75335;50.812;12.376;2024-02-16T07:36:47;5.78;;;2.30;;
38007;SDS011;75335;50.812;12.376;2024-02-16T07:39:26;6.40;;;2.30;;
38007;SDS011;75335;50.812;12.376;2024-02-16T07:42:18;5.07;;;2.13;;
38007;SDS011;75335;50.812;12.376;2024-02-16T07:44:56;5.88;;;2.25;;
38007;SDS011;75335;50.812;12.376;2024-02-16T07:47:38;4.47;;;2.03;;
38007;SDS011;75335;50.812;12.376;2024-02-16T07:50:27;5.07;;;2.08;;
38007;SDS011;75335;50.812;12.376;2024-02-16T07:53:07;6.97;;;2.30;;
38007;SDS011;75335;50.812;12.376;2024-02-16T07:55:39;5.82;;;1.95;;
38007;SDS011;75335;50.812;12.376;2024-02-16T07:58:07;4.95;;;2.05;;
38007;SDS011;75335;50.812;12.376;2024-02-16T08:00:41;5.15;;;1.98;;
38007;SDS011;75335;50.812;12.376;2024-02-16T08:03:13;4.20;;;1.85;;
38007;SDS011;75335;50.812;12.376;2024-02-16T08:05:42;5.18;;;1.92;;
38007;SDS011;75335;50.812;12.376;2024-02-16T08:08:16;5.88;;;2.13;;
38007;SDS011;75335;50.812;12.376;2024-02-16T08:10:45;5.85;;;2.00;;
38007;SDS011;75335;50.812;12.376;2024-02-16T08:13:13;4.80;;;2.03;;
38007;SDS011;75335;50.812;12.376;2024-02-16T08:15:43;6.05;;;1.90;;
38007;SDS011;75335;50.812;12.376;2024-02-16T08:18:13;4.27;;;1.93;;
38007;SDS011;75335;50.812;12.376;2024-02-16T08:20:44;10.70;;;2.40;;
38007;SDS011;75335;50.812;12.376;2024-02-16T08:23:12;5.63;;;2.53;;
38007;SDS011;75335;50.812;12.376;2024-02-16T08:25:42;6.60;;;2.88;;
38007;SDS011;75335;50.812;12.376;2024-02-16T08:28:10;8.18;;;3.53;;
38007;SDS011;75335;50.812;12.376;2024-02-16T08:30:38;6.70;;;3.10;;
38007;SDS011;75335;50.812;12.376;2024-02-16T08:33:13;5.95;;;3.13;;
38007;SDS011;75335;50.812;12.376;2024-02-16T08:35:45;7.78;;;2.63;;
38007;SDS011;75335;50.812;12.376;2024-02-16T08:38:16;6.88;;;3.15;;
38007;SDS011;75335;50.812;12.376;2024-02-16T08:40:48;6.95;;;2.40;;
38007;SDS011;75335;50.812;12.376;2024-02-16T08:43:18;5.75;;;2.60;;
38007;SDS011;75335;50.812;12.376;2024-02-16T08:45:50;6.78;;;2.50;;
38007;SDS011;75335;50.812;12.376;2024-02-16T08:48:26;6.68;;;2.08;;
38007;SDS011;75335;50.812;12.376;2024-02-16T08:54:37;4.47;;;1.83;;
38007;SDS011;75335;50.812;12.376;2024-02-16T08:57:10;8.88;;;2.42;;
38007;SDS011;75335;50.812;12.376;2024-02-16T09:00:00;4.90;;;1.70;;
38007;SDS011;75335;50.812;12.376;2024-02-16T09:03:15;6.57;;;2.03;;
38007;SDS011;75335;50.812;12.376;2024-02-16T09:05:49;6.43;;;2.20;;
38007;SDS011;75335;50.812;12.376;2024-02-16T09:08:44;5.22;;;1.70;;
38007;SDS011;75335;50.812;12.376;2024-02-16T09:11:14;3.78;;;1.52;;
38007;SDS011;75335;50.812;12.376;2024-02-16T09:13:45;4.00;;;1.65;;
38007;SDS011;75335;50.812;12.376;2024-02-16T09:19:01;5.15;;;2.00;;
38007;SDS011;75335;50.812;12.376;2024-02-16T09:21:34;5.35;;;1.75;;
38007;SDS011;75335;50.812;12.376;2024-02-16T09:24:06;5.38;;;1.83;;
38007;SDS011;75335;50.812;12.376;2024-02-16T09:26:36;6.03;;;2.10;;
38007;SDS011;75335;50.812;12.376;2024-02-16T09:29:07;6.97;;;1.98;;
38007;SDS011;75335;50.812;12.376;2024-02-16T09:32:28;4.00;;;1.73;;
38007;SDS011;75335;50.812;12.376;2024-02-16T09:34:55;4.90;;;1.88;;
38007;SDS011;75335;50.812;12.376;2024-02-16T09:37:38;4.28;;;1.95;;
38007;SDS011;75335;50.812;12.376;2024-02-16T09:40:28;5.10;;;2.03;;
38007;SDS011;75335;50.812;12.376;2024-02-16T09:43:27;4.10;;;1.70;;
38007;SDS011;75335;50.812;12.376;2024-02-16T09:46:08;5.07;;;1.92;;
38007;SDS011;75335;50.812;12.376;2024-02-16T09:48:45;9.50;;;2.70;;
38007;SDS011;75335;50.812;12.376;2024-02-16T09:51:28;5.03;;;2.08;;
38007;SDS011;75335;50.812;12.376;2024-02-16T09:54:47;8.13;;;2.05;;
38007;SDS011;75335;50.812;12.376;2024-02-16T09:57:18;4.80;;;2.10;;
38007;SDS011;75335;50.812;12.376;2024-02-16T09:59:49;5.97;;;2.00;;
38007;SDS011;75335;50.812;12.376;2024-02-16T10:02:20;4.78;;;2.10;;
38007;SDS011;75335;50.812;12.376;2024-02-16T10:04:48;6.00;;;2.03;;
38007;SDS011;75335;50.812;12.376;2024-02-16T10:07:32;4.32;;;1.95;;
38007;SDS011;75335;50.812;12.376;2024-02-16T10:10:11;5.82;;;2.20;;
38007;SDS011;75335;50.812;12.376;2024-02-16T10:13:08;5.95;;;2.00;;
38007;SDS011;75335;50.812;12.376;2024-02-16T10:15:57;5.18;;;1.85;;
38007;SDS011;75335;50.812;12.376;2024-02-16T10:47:26;5.15;;;1.88;;
38007;SDS011;75335;50.812;12.376;2024-02-16T11:00:51;4.72;;;1.50;;
38007;SDS011;75335;50.812;12.376;2024-02-16T11:07:45;4.47;;;1.90;;
38007;SDS011;75335;50.812;12.376;2024-02-16T11:12:07;4.78;;;2.08;;
38007;SDS011;75335;50.812;12.376;2024-02-16T13:01:38;5.05;;;2.47;;
38007;SDS011;75335;50.812;12.376;2024-02-16T13:04:19;8.75;;;2.83;;
38007;SDS011;75335;50.812;12.376;2024-02-16T13:07:27;4.72;;;2.22;;
38007;SDS011;75335;50.812;12.376;2024-02-16T13:18:57;6.13;;;2.80;;
38007;SDS011;75335;50.812;12.376;2024-02-16T13:21:30;8.48;;;2.83;;
38007;SDS011;75335;50.812;12.376;2024-02-16T13:24:01;5.20;;;2.33;;
38007;SDS011;75335;50.812;12.376;2024-02-16T13:26:36;6.40;;;2.20;;
38007;SDS011;75335;50.812;12.376;2024-02-16T13:33:16;5.00;;;2.50;;
38007;SDS011;75335;50.812;12.376;2024-02-16T13:36:40;6.82;;;2.50;;
38007;SDS011;75335;50.812;12.376;2024-02-16T13:39:14;6.22;;;2.33;;
38007;SDS011;75335;50.812;12.376;2024-02-16T13:45:50;8.63;;;2.80;;
38007;SDS011;75335;50.812;12.376;2024-02-16T13:49:36;7.70;;;2.97;;
38007;SDS011;75335;50.812;12.376;2024-02-16T13:55:37;9.30;;;2.60;;
38007;SDS011;75335;50.812;12.376;2024-02-16T13:58:44;6.85;;;2.70;;
38007;SDS011;75335;50.812;12.376;2024-02-16T14:01:14;5.22;;;2.58;;
38007;SDS011;75335;50.812;12.376;2024-02-16T14:04:01;6.18;;;2.95;;
38007;SDS011;75335;50.812;12.376;2024-02-16T14:06:33;7.28;;;2.83;;
38007;SDS011;75335;50.812;12.376;2024-02-16T14:09:04;4.70;;;2.42;;
38007;SDS011;75335;50.812;12.376;2024-02-16T14:11:41;6.18;;;2.65;;
38007;SDS011;75335;50.812;12.376;2024-02-16T14:14:15;5.95;;;2.60;;
38007;SDS011;75335;50.812;12.376;2024-02-16T18:59:27;9.95;;;5.22;;
38007;SDS011;75335;50.812;12.376;2024-02-16T19:59:16;16.02;;;7.20;;
38007;SDS011;75335;50.812;12.376;2024-02-16T20:02:05;12.85;;;7.38;;
38007;SDS011;75335;50.812;12.376;2024-02-16T20:10:50;15.68;;;6.55;;
